PWSweather.com
Personal Weather Stations
Station Observations
RHPWSHOR1
Lostock, BoltonGB

LostockBoltonGB

Lat: 53.58073044, Lon: -2.52344131

Elevation: 389

Station Type: Oregon Scientific WMR100

Latest ConditionsUpdated 9:16:23 AM GMT Thursday, Feb 23, 2017
Currently Today's Max Today's Min Today's Average
Temperature 42.1°F5.6°C 50.0°F10.0°C 41.9°F5.5°C 46.6°F8.1°C
Dew Point 35.4°F1.9°C 45.8°F7.7°C 29.1°F-1.6°C 39.8°F4.3°C
Winds 17.5 mph SSE28.2 kmh SSE 19.2 mph WNW30.9 kmh WNW - 2.9 mph 4.7 kmh
Wind Gusts 17.5 mph28.2 kmh 19.2 mph30.9 kmh - -
Humidity 77% 88% 51% 78%
Pressure 28.32 in959.0 mb 28.94 in980.0 mb 28.32 in959.0 mb -
Hour Temp Dew Point Humidity Winds Wind Gusts Pressure Precip Precip Rate Daily Precip Total
09:16 AM 42.1°F5.6°C 35.4°F1.9°C 77% 17.5 mph SSE28.2 kmh SSE 17.5 mph28.2 kmh 28.32 in959.0 mb 0.00 in0.0 mm 0.00 in0.0 mm 0.00 in0.0 mm
09:09 AM 41.9°F5.5°C 32.8°F0.4°C 70% 5.6 mph SSW9.0 kmh SSW 7.6 mph12.2 kmh 28.32 in959.0 mb 0.00 in0.0 mm 0.00 in0.0 mm 0.00 in0.0 mm
09:02 AM 42.4°F5.8°C 31.9°F-0.1°C 66% 12.1 mph S19.5 kmh S 12.1 mph19.5 kmh 28.35 in960.0 mb 0.00 in0.0 mm 0.00 in0.0 mm 0.00 in0.0 mm
08:55 AM 43.0°F6.1°C 34.6°F1.4°C 72% 19.2 mph WNW30.9 kmh WNW 19.2 mph30.9 kmh 28.35 in960.0 mb 0.00 in0.0 mm 0.00 in0.0 mm 0.00 in0.0 mm
08:48 AM 43.5°F6.4°C 35.8°F2.1°C 74% 5.4 mph SSW8.7 kmh SSW 5.4 mph8.7 kmh 28.38 in961.1 mb 0.00 in0.0 mm 0.00 in0.0 mm 0.00 in0.0 mm
08:40 AM 43.7°F6.5°C 36.0°F2.2°C 74% 2.9 mph SSW4.7 kmh SSW 4.3 mph6.9 kmh 28.38 in961.1 mb 0.00 in0.0 mm 0.00 in0.0 mm 0.00 in0.0 mm
08:34 AM 43.7°F6.5°C 35.6°F2.0°C 73% 4.9 mph S7.9 kmh S 8.7 mph14.0 kmh 28.38 in961.1 mb 0.00 in0.0 mm 0.00 in0.0 mm 0.00 in0.0 mm
08:27 AM 44.1°F6.7°C 34.9°F1.6°C 70% 2.5 mph SSE4.0 kmh SSE 2.9 mph4.7 kmh 28.38 in961.1 mb 0.00 in0.0 mm 0.00 in0.0 mm 0.00 in0.0 mm
08:20 AM 44.1°F6.7°C 33.8°F1.0°C 67% 6.5 mph SSW10.5 kmh SSW 9.8 mph15.8 kmh 28.41 in962.1 mb 0.00 in0.0 mm 0.00 in0.0 mm 0.00 in0.0 mm
08:13 AM 44.4°F6.9°C 32.2°F0.1°C 62% 10.5 mph SSW16.9 kmh SSW 10.5 mph16.9 kmh 28.41 in962.1 mb 0.00 in0.0 mm 0.00 in0.0 mm 0.00 in0.0 mm
08:06 AM 44.8°F7.1°C 30.9°F-0.6°C 58% 5.4 mph SSW8.7 kmh SSW 10.3 mph16.6 kmh 28.41 in962.1 mb 0.00 in0.0 mm 0.00 in0.0 mm 0.00 in0.0 mm
07:59 AM 45.3°F7.4°C 31.0°F-0.6°C 57% 2.7 mph SSW4.3 kmh SSW 4.7 mph7.6 kmh 28.41 in962.1 mb 0.00 in0.0 mm 0.00 in0.0 mm 0.00 in0.0 mm
07:52 AM 45.9°F7.7°C 31.1°F-0.5°C 56% 4.0 mph SSW6.4 kmh SSW 4.0 mph6.4 kmh 28.41 in962.1 mb 0.00 in0.0 mm 0.00 in0.0 mm 0.00 in0.0 mm
07:45 AM 46.0°F7.8°C 30.3°F-0.9°C 54% 6.5 mph WNW10.5 kmh WNW 6.5 mph10.5 kmh 28.41 in962.1 mb 0.00 in0.0 mm 0.00 in0.0 mm 0.00 in0.0 mm
07:37 AM 46.2°F7.9°C 29.1°F-1.6°C 51% 2.7 mph WNW4.3 kmh WNW 7.2 mph11.6 kmh 28.41 in962.1 mb 0.00 in0.0 mm 0.00 in0.0 mm 0.00 in0.0 mm
07:30 AM 46.0°F7.8°C 31.7°F-0.2°C 57% 13.2 mph WSW21.2 kmh WSW 13.2 mph21.2 kmh 28.44 in963.1 mb 0.00 in0.0 mm 0.00 in0.0 mm 0.00 in0.0 mm
07:24 AM 46.4°F8.0°C 36.1°F2.3°C 67% 3.8 mph NNW6.1 kmh NNW 5.6 mph9.0 kmh 28.44 in963.1 mb 0.00 in0.0 mm 0.00 in0.0 mm 0.00 in0.0 mm
07:17 AM 46.6°F8.1°C 38.8°F3.8°C 74% 2.2 mph WNW3.5 kmh WNW 7.4 mph11.9 kmh 28.44 in963.1 mb 0.00 in0.0 mm 0.00 in0.0 mm 0.00 in0.0 mm
07:09 AM 46.4°F8.0°C 38.9°F3.8°C 75% 7.4 mph S11.9 kmh S 7.4 mph11.9 kmh 28.44 in963.1 mb 0.00 in0.0 mm 0.00 in0.0 mm 0.00 in0.0 mm
07:03 AM 46.4°F8.0°C 39.3°F4.1°C 76% 4.9 mph SSW7.9 kmh SSW 4.9 mph7.9 kmh 28.44 in963.1 mb 0.00 in0.0 mm 0.00 in0.0 mm 0.00 in0.0 mm
06:56 AM 46.2°F7.9°C 38.8°F3.8°C 75% 2.5 mph WNW4.0 kmh WNW 2.5 mph4.0 kmh 28.44 in963.1 mb 0.00 in0.0 mm 0.00 in0.0 mm 0.00 in0.0 mm
06:49 AM 45.9°F7.7°C 37.0°F2.8°C 71% 2.0 mph SSW3.2 kmh SSW 2.9 mph4.7 kmh 28.47 in964.1 mb 0.00 in0.0 mm 0.00 in0.0 mm 0.00 in0.0 mm
06:42 AM 45.9°F7.7°C 35.9°F2.2°C 68% 4.0 mph S6.4 kmh S 4.0 mph6.4 kmh 28.47 in964.1 mb 0.00 in0.0 mm 0.00 in0.0 mm 0.00 in0.0 mm
06:35 AM 45.9°F7.7°C 34.0°F1.1°C 63% 3.4 mph WSW5.5 kmh WSW 8.5 mph13.7 kmh 28.47 in964.1 mb 0.00 in0.0 mm 0.00 in0.0 mm 0.00 in0.0 mm
06:28 AM 47.8°F8.8°C 40.7°F4.8°C 76% 7.6 mph SE12.2 kmh SE 7.6 mph12.2 kmh 28.47 in964.1 mb 0.00 in0.0 mm 0.00 in0.0 mm 0.00 in0.0 mm
06:21 AM 48.7°F9.3°C 41.9°F5.5°C 77% 3.1 mph WNW5.0 kmh WNW 3.1 mph5.0 kmh 28.50 in965.1 mb 0.00 in0.0 mm 0.00 in0.0 mm 0.00 in0.0 mm
06:14 AM 48.9°F9.4°C 41.7°F5.4°C 76% 1.3 mph NNW2.1 kmh NNW 2.2 mph3.5 kmh 28.50 in965.1 mb 0.00 in0.0 mm 0.00 in0.0 mm 0.00 in0.0 mm
06:07 AM 49.1°F9.5°C 41.9°F5.5°C 76% 2.5 mph WNW4.0 kmh WNW 2.9 mph4.7 kmh 28.50 in965.1 mb 0.00 in0.0 mm 0.00 in0.0 mm 0.00 in0.0 mm
06:00 AM 49.3°F9.6°C 42.1°F5.6°C 76% Calm Calm 1.6 mph2.6 kmh 28.50 in965.1 mb 0.00 in0.0 mm 0.00 in0.0 mm 0.00 in0.0 mm
05:53 AM 49.5°F9.7°C 42.2°F5.7°C 76% Calm Calm 1.3 mph2.1 kmh 28.50 in965.1 mb 0.00 in0.0 mm 0.00 in0.0 mm 0.00 in0.0 mm
05:46 AM 49.6°F9.8°C 42.4°F5.8°C 76% Calm Calm 1.1 mph1.8 kmh 28.52 in965.8 mb 0.00 in0.0 mm 0.00 in0.0 mm 0.00 in0.0 mm
05:39 AM 49.6°F9.8°C 43.1°F6.2°C 78% 2.2 mph WSW3.5 kmh WSW 2.2 mph3.5 kmh 28.52 in965.8 mb 0.00 in0.0 mm 0.00 in0.0 mm 0.00 in0.0 mm
05:32 AM 49.8°F9.9°C 43.6°F6.4°C 79% Calm Calm -- 28.55 in966.8 mb 0.00 in0.0 mm 0.00 in0.0 mm 0.00 in0.0 mm
05:25 AM 49.8°F9.9°C 43.9°F6.6°C 80% 2.5 mph NNW4.0 kmh NNW 2.5 mph4.0 kmh 28.55 in966.8 mb 0.00 in0.0 mm 0.00 in0.0 mm 0.00 in0.0 mm
05:18 AM 49.6°F9.8°C 43.7°F6.5°C 80% 1.1 mph WNW1.8 kmh WNW 2.0 mph3.2 kmh 28.58 in967.8 mb 0.00 in0.0 mm 0.00 in0.0 mm 0.00 in0.0 mm
05:11 AM 49.6°F9.8°C 44.1°F6.7°C 81% 2.7 mph SSW4.3 kmh SSW 2.7 mph4.3 kmh 28.58 in967.8 mb 0.00 in0.0 mm 0.00 in0.0 mm 0.00 in0.0 mm
05:04 AM 49.8°F9.9°C 44.2°F6.8°C 81% 2.5 mph WSW4.0 kmh WSW 2.5 mph4.0 kmh 28.58 in967.8 mb 0.00 in0.0 mm 0.00 in0.0 mm 0.00 in0.0 mm
04:57 AM 49.8°F9.9°C 44.2°F6.8°C 81% 2.9 mph WNW4.7 kmh WNW 5.8 mph9.3 kmh 28.58 in967.8 mb 0.00 in0.0 mm 0.00 in0.0 mm 0.00 in0.0 mm
04:49 AM 50.0°F10.0°C 44.7°F7.1°C 82% 1.1 mph SW1.8 kmh SW 2.9 mph4.7 kmh 28.61 in968.8 mb 0.00 in0.0 mm 0.00 in0.0 mm 0.00 in0.0 mm
04:43 AM 50.0°F10.0°C 45.1°F7.3°C 83% 3.8 mph SSW6.1 kmh SSW 3.8 mph6.1 kmh 28.61 in968.8 mb 0.00 in0.0 mm 0.00 in0.0 mm 0.00 in0.0 mm
04:36 AM 50.0°F10.0°C 45.4°F7.4°C 84% Calm Calm 2.9 mph4.7 kmh 28.64 in969.9 mb 0.00 in0.0 mm 0.00 in0.0 mm 0.00 in0.0 mm
04:29 AM 49.8°F9.9°C 45.5°F7.5°C 85% 2.5 mph SW4.0 kmh SW 4.0 mph6.4 kmh 28.64 in969.9 mb 0.00 in0.0 mm 0.00 in0.0 mm 0.00 in0.0 mm
04:22 AM 49.8°F9.9°C 45.8°F7.7°C 86% 4.9 mph WSW7.9 kmh WSW 7.6 mph12.2 kmh 28.64 in969.9 mb 0.00 in0.0 mm 0.00 in0.0 mm 0.00 in0.0 mm
04:15 AM 49.5°F9.7°C 45.8°F7.7°C 87% 3.4 mph SSW5.5 kmh SSW 3.4 mph5.5 kmh 28.64 in969.9 mb 0.00 in0.0 mm 0.00 in0.0 mm 0.00 in0.0 mm
04:08 AM 49.3°F9.6°C 45.6°F7.6°C 87% 2.0 mph E3.2 kmh E 2.7 mph4.3 kmh 28.64 in969.9 mb 0.00 in0.0 mm 0.00 in0.0 mm 0.00 in0.0 mm
04:01 AM 49.3°F9.6°C 45.6°F7.6°C 87% 4.0 mph WSW6.4 kmh WSW 4.0 mph6.4 kmh 28.67 in970.9 mb 0.00 in0.0 mm 0.00 in0.0 mm 0.00 in0.0 mm
03:54 AM 49.1°F9.5°C 45.7°F7.6°C 88% 0.9 mph NE1.4 kmh NE 4.3 mph6.9 kmh 28.67 in970.9 mb 0.00 in0.0 mm 0.00 in0.0 mm 0.00 in0.0 mm
03:47 AM 48.9°F9.4°C 45.2°F7.3°C 87% 2.0 mph WNW3.2 kmh WNW 2.7 mph4.3 kmh 28.67 in970.9 mb 0.00 in0.0 mm 0.00 in0.0 mm 0.00 in0.0 mm
03:40 AM 48.7°F9.3°C 45.1°F7.3°C 87% 2.7 mph WSW4.3 kmh WSW 2.7 mph4.3 kmh 28.67 in970.9 mb 0.00 in0.0 mm 0.00 in0.0 mm 0.00 in0.0 mm
03:33 AM 48.7°F9.3°C 45.1°F7.3°C 87% 1.1 mph SE1.8 kmh SE 2.2 mph3.5 kmh 28.70 in971.9 mb 0.00 in0.0 mm 0.00 in0.0 mm 0.00 in0.0 mm
03:26 AM 48.6°F9.2°C 44.9°F7.2°C 87% 1.3 mph SSW2.1 kmh SSW 2.5 mph4.0 kmh 28.70 in971.9 mb 0.00 in0.0 mm 0.00 in0.0 mm 0.00 in0.0 mm
03:19 AM 48.4°F9.1°C 44.4°F6.9°C 86% 4.9 mph NNW7.9 kmh NNW 4.9 mph7.9 kmh 28.73 in972.9 mb 0.00 in0.0 mm 0.00 in0.0 mm 0.00 in0.0 mm
03:12 AM 47.8°F8.8°C 43.9°F6.6°C 86% Calm Calm 1.1 mph1.8 kmh 28.73 in972.9 mb 0.00 in0.0 mm 0.00 in0.0 mm 0.00 in0.0 mm
03:05 AM 47.1°F8.4°C 42.5°F5.8°C 84% 0.9 mph NW1.4 kmh NW 1.6 mph2.6 kmh 28.73 in972.9 mb 0.00 in0.0 mm 0.00 in0.0 mm 0.00 in0.0 mm
02:58 AM 46.9°F8.3°C 42.4°F5.8°C 84% Calm Calm -- 28.73 in972.9 mb 0.00 in0.0 mm 0.00 in0.0 mm 0.00 in0.0 mm
02:51 AM 46.8°F8.2°C 42.2°F5.7°C 84% Calm Calm -- 28.76 in973.9 mb 0.00 in0.0 mm 0.00 in0.0 mm 0.00 in0.0 mm
02:44 AM 46.6°F8.1°C 42.3°F5.7°C 85% Calm Calm -- 28.76 in973.9 mb 0.00 in0.0 mm 0.00 in0.0 mm 0.00 in0.0 mm
02:37 AM 46.2°F7.9°C 42.0°F5.6°C 85% Calm Calm -- 28.79 in974.9 mb 0.00 in0.0 mm 0.00 in0.0 mm 0.00 in0.0 mm
02:30 AM 46.0°F7.8°C 41.5°F5.3°C 84% Calm Calm -- 28.79 in974.9 mb 0.00 in0.0 mm 0.00 in0.0 mm 0.00 in0.0 mm
02:22 AM 45.9°F7.7°C 41.3°F5.2°C 84% 1.1 mph NNW1.8 kmh NNW 1.1 mph1.8 kmh 28.79 in974.9 mb 0.00 in0.0 mm 0.00 in0.0 mm 0.00 in0.0 mm
02:15 AM 45.5°F7.5°C 41.0°F5.0°C 84% Calm Calm -- 28.79 in974.9 mb 0.00 in0.0 mm 0.00 in0.0 mm 0.00 in0.0 mm
02:09 AM 45.5°F7.5°C 40.7°F4.8°C 83% 0.9 mph WSW1.4 kmh WSW 0.9 mph1.4 kmh 28.79 in974.9 mb 0.00 in0.0 mm 0.00 in0.0 mm 0.00 in0.0 mm
02:02 AM 45.3°F7.4°C 40.8°F4.9°C 84% Calm Calm -- 28.82 in976.0 mb 0.00 in0.0 mm 0.00 in0.0 mm 0.00 in0.0 mm
01:55 AM 45.3°F7.4°C 40.5°F4.7°C 83% 1.1 mph NNE1.8 kmh NNE 1.3 mph2.1 kmh 28.82 in976.0 mb 0.00 in0.0 mm 0.00 in0.0 mm 0.00 in0.0 mm
01:48 AM 45.1°F7.3°C 40.3°F4.6°C 83% Calm Calm -- 28.82 in976.0 mb 0.00 in0.0 mm 0.00 in0.0 mm 0.00 in0.0 mm
01:41 AM 45.0°F7.2°C 40.4°F4.7°C 84% 1.6 mph NNW2.6 kmh NNW 2.7 mph4.3 kmh 28.82 in976.0 mb 0.00 in0.0 mm 0.00 in0.0 mm 0.00 in0.0 mm
01:34 AM 44.8°F7.1°C 40.3°F4.6°C 84% Calm Calm -- 28.85 in977.0 mb 0.00 in0.0 mm 0.00 in0.0 mm 0.00 in0.0 mm
01:27 AM 44.6°F7.0°C 39.8°F4.3°C 83% 1.1 mph ENE1.8 kmh ENE 1.3 mph2.1 kmh 28.85 in977.0 mb 0.00 in0.0 mm 0.00 in0.0 mm 0.00 in0.0 mm
01:20 AM 44.4°F6.9°C 39.6°F4.2°C 83% 0.9 mph SSE1.4 kmh SSE 1.6 mph2.6 kmh 28.85 in977.0 mb 0.00 in0.0 mm 0.00 in0.0 mm 0.00 in0.0 mm
01:13 AM 44.4°F6.9°C 39.3°F4.1°C 82% 2.5 mph NNE4.0 kmh NNE 2.5 mph4.0 kmh 28.85 in977.0 mb 0.00 in0.0 mm 0.00 in0.0 mm 0.00 in0.0 mm
01:06 AM 44.2°F6.8°C 39.1°F3.9°C 82% 1.6 mph 2.6 kmh 1.6 mph2.6 kmh 28.88 in978.0 mb 0.00 in0.0 mm 0.00 in0.0 mm 0.00 in0.0 mm
12:59 AM 44.2°F6.8°C 39.1°F3.9°C 82% Calm Calm 1.6 mph2.6 kmh 28.88 in978.0 mb 0.00 in0.0 mm 0.00 in0.0 mm 0.00 in0.0 mm
12:52 AM 44.2°F6.8°C 38.8°F3.8°C 81% Calm Calm 1.6 mph2.6 kmh 28.91 in979.0 mb 0.00 in0.0 mm 0.00 in0.0 mm 0.00 in0.0 mm
12:45 AM 44.4°F6.9°C 38.7°F3.7°C 80% Calm Calm 1.6 mph2.6 kmh 28.91 in979.0 mb 0.00 in0.0 mm 0.00 in0.0 mm 0.00 in0.0 mm
12:38 AM 44.4°F6.9°C 38.3°F3.5°C 79% 1.3 mph WNW2.1 kmh WNW 1.3 mph2.1 kmh 28.91 in979.0 mb 0.00 in0.0 mm 0.00 in0.0 mm 0.00 in0.0 mm
12:31 AM 44.4°F6.9°C 38.3°F3.5°C 79% 0.9 mph WSW1.4 kmh WSW 1.1 mph1.8 kmh 28.91 in979.0 mb 0.00 in0.0 mm 0.00 in0.0 mm 0.00 in0.0 mm
12:24 AM 44.6°F7.0°C 38.2°F3.4°C 78% 1.1 mph WSW1.8 kmh WSW 1.1 mph1.8 kmh 28.91 in979.0 mb 0.00 in0.0 mm 0.00 in0.0 mm 0.00 in0.0 mm
12:16 AM 44.6°F7.0°C 38.2°F3.4°C 78% 2.0 mph WSW3.2 kmh WSW 2.0 mph3.2 kmh 28.91 in979.0 mb 0.00 in0.0 mm 0.00 in0.0 mm 0.00 in0.0 mm
12:10 AM 44.8°F7.1°C 38.4°F3.6°C 78% Calm Calm -- 28.91 in979.0 mb 0.00 in0.0 mm 0.00 in0.0 mm 0.00 in0.0 mm
12:03 AM 44.8°F7.1°C 38.4°F3.6°C 78% 0.9 mph WNW1.4 kmh WNW 0.9 mph1.4 kmh 28.94 in980.0 mb 0.00 in0.0 mm 0.00 in0.0 mm 0.00 in0.0 mm